Time;durP1;ratioP1;P1;durP2;ratioP2;P2;SDS_P1;SDS_P2;PMS_P1;PMS_P2;Temp;Humidity;BMP_temperature;BMP_pressure;BME280_temperature;BME280_humidity;BME280_pressure;Samples;Min_cycle;Max_cycle;Signal;HPM_P1;HPM_P2
2022/02/11 00:04:16;;;;;;;13.07;2.25;;;3.60;96.50;;;;;;4927451;29;20083;-70
2022/02/11 00:06:57;;;;;;;8.90;1.98;;;3.60;96.60;;;;;;4926714;29;20091;-69
2022/02/11 00:09:23;;;;;;;10.93;2.30;;;3.60;96.40;;;;;;4977261;28;20109;-70
2022/02/11 00:11:50;;;;;;;7.47;1.67;;;3.60;96.50;;;;;;4968492;28;20089;-69
2022/02/11 00:14:17;;;;;;;12.70;2.50;;;3.50;96.70;;;;;;4969438;28;20047;-70
2022/02/11 00:16:44;;;;;;;12.55;2.25;;;3.50;96.70;;;;;;4971931;28;20046;-69
2022/02/11 00:19:11;;;;;;;10.27;1.70;;;3.40;97.10;;;;;;4970626;28;20397;-68
2022/02/11 00:21:38;;;;;;;7.43;2.03;;;3.40;96.80;;;;;;4969678;28;20074;-70
2022/02/11 00:24:05;;;;;;;11.30;2.33;;;3.40;96.90;;;;;;4952047;28;20051;-70
2022/02/11 00:26:36;;;;;;;10.05;2.53;;;3.40;97.30;;;;;;4969640;28;20077;-69
2022/02/11 00:32:32;;;;;;;17.25;4.05;;;3.40;97.00;;;;;;4949910;29;20083;-69
2022/02/11 00:34:52;;;;;;;20.13;2.63;;;3.30;97.20;;;;;;4966595;28;20137;-70
2022/02/11 00:37:23;;;;;;;13.52;1.85;;;4.00;97.40;;;;;;4952297;28;20130;-69
2022/02/11 00:45:37;;;;;;;5.68;1.85;;;3.30;97.70;;;;;;4932364;28;20042;-70
2022/02/11 01:04:30;;;;;;;10.65;2.60;;;3.10;97.80;;;;;;4970978;28;20074;-69
2022/02/11 01:06:57;;;;;;;20.67;1.80;;;3.10;97.60;;;;;;4973476;28;20137;-68
2022/02/11 01:09:24;;;;;;;7.00;1.77;;;3.10;97.80;;;;;;4974695;28;20113;-69
2022/02/11 01:11:53;;;;;;;16.50;2.08;;;3.10;97.90;;;;;;4976013;28;20050;-69
2022/02/11 01:14:30;;;;;;;9.52;2.50;;;3.10;97.80;;;;;;4976669;28;20057;-68
2022/02/11 01:17:05;;;;;;;4.70;1.85;;;3.10;98.10;;;;;;4970171;28;20070;-69
2022/02/11 01:19:42;;;;;;;13.57;3.30;;;3.10;98.10;;;;;;4968992;28;20090;-69
2022/02/11 01:27:44;;;;;;;12.13;2.63;;;3.10;98.40;;;;;;4967786;28;20125;-70
2022/02/11 01:46:00;;;;;;;13.88;2.60;;;2.90;98.60;;;;;;4625846;28;10000228;-70
2022/02/11 02:15:39;;;;;;;;;;;2.80;99.40;;;;;;4952862;29;20083;-71
2022/02/11 02:26:20;;;;;;;7.50;1.50;;;2.70;99.50;;;;;;4931512;28;20085;-70
2022/02/11 02:43:26;;;;;;;14.00;2.33;;;2.70;99.70;;;;;;4971117;28;20042;-70
2022/02/11 02:59:24;;;;;;;4.00;1.20;;;2.50;99.90;;;;;;4969010;28;20066;-70
2022/02/11 03:16:14;;;;;;;6.50;1.60;;;2.50;99.90;;;;;;4970228;28;20078;-70
2022/02/11 03:35:04;;;;;;;14.57;2.40;;;2.50;99.90;;;;;;4968405;28;20142;-69
2022/02/11 04:59:57;;;;;;;15.35;3.35;;;2.00;99.90;;;;;;4969211;28;20086;-70
2022/02/11 05:02:26;;;;;;;9.63;2.22;;;2.00;99.90;;;;;;4969177;28;20078;-70
2022/02/11 05:04:53;;;;;;;14.57;2.60;;;2.00;99.90;;;;;;4969055;28;20097;-70
2022/02/11 05:07:20;;;;;;;6.60;1.80;;;2.00;99.90;;;;;;4970629;28;20093;-70
2022/02/11 05:09:47;;;;;;;7.18;1.70;;;2.10;99.90;;;;;;4972927;28;20157;-70
2022/02/11 05:12:13;;;;;;;6.65;1.85;;;2.10;99.90;;;;;;4972701;28;20055;-71
2022/02/11 05:14:40;;;;;;;17.48;1.67;;;2.00;99.90;;;;;;4973049;28;20126;-69
2022/02/11 05:17:07;;;;;;;12.90;2.85;;;2.00;99.90;;;;;;4971595;28;20058;-70
2022/02/11 05:19:34;;;;;;;8.40;1.55;;;2.10;99.90;;;;;;4973809;28;20130;-69
2022/02/11 05:22:00;;;;;;;25.60;2.90;;;2.10;99.90;;;;;;4975670;28;20065;-70
2022/02/11 05:24:27;;;;;;;8.02;1.80;;;2.20;99.90;;;;;;4976043;28;20126;-73
2022/02/11 05:26:54;;;;;;;12.70;2.15;;;2.10;99.90;;;;;;4975407;28;20094;-69
2022/02/11 05:29:20;;;;;;;16.48;1.77;;;2.10;99.90;;;;;;4972775;28;20074;-70
2022/02/11 05:31:48;;;;;;;10.18;2.30;;;2.20;99.90;;;;;;4955205;28;20172;-69
2022/02/11 05:34:15;;;;;;;6.65;1.83;;;2.20;99.90;;;;;;4972438;28;20101;-69
2022/02/11 05:36:42;;;;;;;10.65;2.80;;;2.10;99.90;;;;;;4973477;28;20091;-70
2022/02/11 05:39:10;;;;;;;8.93;1.85;;;2.20;99.90;;;;;;4973390;28;20553;-69
2022/02/11 05:41:36;;;;;;;11.77;2.03;;;2.20;99.90;;;;;;4973348;28;20090;-70
2022/02/11 05:44:03;;;;;;;11.43;2.60;;;2.20;99.90;;;;;;4972462;28;20133;-68
2022/02/11 05:46:30;;;;;;;10.45;1.88;;;2.20;99.90;;;;;;4972916;28;20051;-68
2022/02/11 05:48:59;;;;;;;6.40;1.50;;;2.20;99.90;;;;;;4975051;28;20074;-68
2022/02/11 05:51:26;;;;;;;10.63;2.22;;;2.10;99.90;;;;;;4973644;28;20062;-69
2022/02/11 05:53:53;;;;;;;8.88;2.10;;;2.10;99.90;;;;;;4975603;28;20054;-69
2022/02/11 05:56:19;;;;;;;12.23;2.22;;;2.10;99.90;;;;;;4975950;28;20085;-69
2022/02/11 05:58:46;;;;;;;21.50;2.50;;;2.10;99.90;;;;;;4975804;28;20049;-69
2022/02/11 06:01:13;;;;;;;13.55;2.15;;;2.00;99.90;;;;;;4976789;28;20047;-68
2022/02/11 06:03:40;;;;;;;15.50;2.70;;;1.90;99.90;;;;;;4976077;28;20549;-70
2022/02/11 06:06:07;;;;;;;6.38;2.35;;;2.00;99.90;;;;;;4974994;28;20043;-69
2022/02/11 06:08:33;;;;;;;8.63;2.05;;;2.00;99.90;;;;;;4967127;28;20038;-69
2022/02/11 06:11:00;;;;;;;10.32;1.88;;;2.30;99.90;;;;;;4976772;28;20043;-69
2022/02/11 06:13:27;;;;;;;9.80;2.20;;;2.00;99.90;;;;;;4977145;28;20073;-68
2022/02/11 06:15:55;;;;;;;15.60;3.30;;;1.90;99.90;;;;;;4978153;28;20546;-69
2022/02/11 06:18:22;;;;;;;12.13;2.85;;;1.90;99.90;;;;;;4979973;28;20050;-70
2022/02/11 06:20:49;;;;;;;12.38;2.60;;;1.90;99.90;;;;;;4981985;28;20058;-69
2022/02/11 06:23:15;;;;;;;10.77;2.22;;;1.90;99.90;;;;;;4958870;28;20074;-69
2022/02/11 06:25:43;;;;;;;5.30;1.70;;;2.00;99.90;;;;;;4973142;28;20101;-69
2022/02/11 06:28:11;;;;;;;15.00;3.47;;;2.00;99.90;;;;;;4972600;28;20047;-68
2022/02/11 06:30:38;;;;;;;12.98;1.92;;;2.00;99.90;;;;;;4970686;28;20098;-69
2022/02/11 06:33:05;;;;;;;10.13;2.38;;;2.00;99.90;;;;;;4972083;28;20051;-70
2022/02/11 06:35:34;;;;;;;10.93;3.10;;;2.10;99.90;;;;;;4972113;28;20232;-69
2022/02/11 06:38:01;;;;;;;9.85;2.53;;;2.10;99.90;;;;;;4971747;28;20047;-69
2022/02/11 06:40:31;;;;;;;10.25;2.17;;;2.20;99.90;;;;;;4970023;28;20050;-69
2022/02/11 06:42:58;;;;;;;8.50;2.00;;;2.20;99.90;;;;;;4954332;28;20086;-69
2022/02/11 06:45:25;;;;;;;14.27;3.25;;;2.30;99.90;;;;;;4951674;28;20053;-69
2022/02/11 06:47:53;;;;;;;14.07;1.85;;;2.30;99.90;;;;;;4971381;28;20174;-69
2022/02/11 06:50:20;;;;;;;9.02;2.03;;;2.40;99.90;;;;;;4970958;28;20047;-70
2022/02/11 06:52:49;;;;;;;9.30;2.03;;;2.40;99.90;;;;;;4971125;28;20050;-70
2022/02/11 06:55:16;;;;;;;10.57;2.10;;;2.40;99.90;;;;;;4972757;28;20062;-70
2022/02/11 06:57:43;;;;;;;5.35;2.00;;;2.50;99.90;;;;;;4971746;28;20054;-70
2022/02/11 07:00:12;;;;;;;8.05;1.63;;;2.50;99.90;;;;;;4973574;28;20046;-71
2022/02/11 07:02:39;;;;;;;8.85;2.17;;;2.50;99.90;;;;;;4956441;28;20109;-70
2022/02/11 07:05:06;;;;;;;8.80;2.85;;;2.50;99.90;;;;;;4973434;28;20093;-70
2022/02/11 07:07:33;;;;;;;9.02;1.98;;;2.60;99.90;;;;;;4973813;28;20137;-70
2022/02/11 07:10:00;;;;;;;15.02;2.55;;;2.60;99.90;;;;;;4975245;28;20097;-70
2022/02/11 07:12:27;;;;;;;15.18;2.60;;;2.60;99.90;;;;;;4975159;28;20306;-71
2022/02/11 07:14:54;;;;;;;10.60;1.55;;;2.60;99.90;;;;;;4975006;28;20169;-69
2022/02/11 07:17:21;;;;;;;11.05;2.00;;;2.70;99.90;;;;;;4972264;28;20097;-68
2022/02/11 07:19:47;;;;;;;16.50;3.60;;;2.70;99.90;;;;;;4971801;28;20158;-67
2022/02/11 07:22:14;;;;;;;11.68;2.25;;;2.70;99.90;;;;;;4972050;28;20129;-67
2022/02/11 07:24:41;;;;;;;12.70;2.85;;;2.80;99.90;;;;;;4972784;28;20050;-70
2022/02/11 07:27:10;;;;;;;7.60;2.00;;;3.50;99.90;;;;;;4971120;28;20075;-67
2022/02/11 07:29:37;;;;;;;8.63;2.42;;;2.80;99.90;;;;;;4970668;28;20050;-68
2022/02/11 07:32:04;;;;;;;11.63;2.08;;;2.80;99.90;;;;;;4971307;28;20050;-68
2022/02/11 07:34:31;;;;;;;8.18;3.58;;;2.80;99.90;;;;;;4978791;28;20498;-69
2022/02/11 07:36:59;;;;;;;13.20;3.17;;;2.90;99.90;;;;;;4967176;28;20134;-66
2022/02/11 07:39:47;;;;;;;11.27;2.05;;;2.80;99.90;;;;;;4962857;28;20061;-67
2022/02/11 07:42:14;;;;;;;8.90;2.92;;;2.70;99.90;;;;;;4970160;28;20126;-68
2022/02/11 07:44:40;;;;;;;8.45;2.50;;;2.70;99.90;;;;;;4970618;28;20082;-68
2022/02/11 07:47:07;;;;;;;12.35;2.55;;;2.70;99.90;;;;;;4970455;28;20086;-66
2022/02/11 07:49:35;;;;;;;12.63;2.55;;;2.80;99.90;;;;;;4953052;28;20573;-67
2022/02/11 07:52:02;;;;;;;8.18;2.65;;;2.70;99.90;;;;;;4971708;28;20086;-67
2022/02/11 07:54:30;;;;;;;14.23;2.17;;;2.70;99.90;;;;;;4969596;28;20078;-66
2022/02/11 07:56:57;;;;;;;18.08;6.53;;;2.70;99.90;;;;;;4968946;28;20090;-63
2022/02/11 07:59:24;;;;;;;8.73;2.65;;;2.70;99.90;;;;;;4968885;28;20058;-66
2022/02/11 08:01:52;;;;;;;11.23;2.67;;;2.70;99.90;;;;;;4969698;28;20097;-68
2022/02/11 08:04:19;;;;;;;17.02;3.10;;;2.70;99.90;;;;;;4967782;28;20486;-73
2022/02/11 08:06:47;;;;;;;5.30;2.58;;;2.70;99.90;;;;;;4967445;28;20047;-68
2022/02/11 08:09:14;;;;;;;17.38;2.97;;;2.70;99.90;;;;;;4950875;28;20454;-69
2022/02/11 08:11:40;;;;;;;11.90;2.03;;;2.70;99.90;;;;;;4968491;28;20502;-68
2022/02/11 08:14:07;;;;;;;13.63;2.83;;;2.60;99.90;;;;;;4969463;28;20070;-67
2022/02/11 08:16:35;;;;;;;7.13;3.13;;;2.60;99.90;;;;;;4970062;28;20117;-67
2022/02/11 08:19:02;;;;;;;12.88;2.90;;;2.60;99.90;;;;;;4969253;28;20478;-68
2022/02/11 08:21:28;;;;;;;13.32;2.60;;;2.60;99.90;;;;;;4969671;28;20050;-67
2022/02/11 08:23:56;;;;;;;10.90;2.40;;;2.70;99.90;;;;;;4969009;28;20486;-68
2022/02/11 08:26:23;;;;;;;12.82;2.60;;;2.70;99.90;;;;;;4968887;28;20493;-67
2022/02/11 08:28:49;;;;;;;19.15;3.53;;;2.80;99.90;;;;;;4968603;28;20137;-66
2022/02/11 08:31:16;;;;;;;8.88;2.88;;;2.80;99.90;;;;;;4968675;28;20046;-66
2022/02/11 08:33:46;;;;;;;8.68;2.60;;;2.90;99.90;;;;;;4969082;28;20155;-67
2022/02/11 08:36:13;;;;;;;13.07;2.63;;;2.90;99.90;;;;;;4966302;28;20054;-66
2022/02/11 08:38:40;;;;;;;18.85;3.20;;;3.30;99.90;;;;;;4952263;28;20051;-67
2022/02/11 08:41:07;;;;;;;11.60;2.92;;;3.00;99.90;;;;;;4966579;28;20058;-68
2022/02/11 08:43:34;;;;;;;24.83;3.03;;;3.00;99.90;;;;;;4970207;28;20059;-67
2022/02/11 08:46:04;;;;;;;8.38;2.45;;;3.10;99.90;;;;;;4969444;28;20047;-67
2022/02/11 08:48:31;;;;;;;13.43;2.72;;;3.10;99.90;;;;;;4967577;28;20047;-66
2022/02/11 08:50:59;;;;;;;17.67;3.45;;;3.10;99.90;;;;;;4972489;28;20051;-67
2022/02/11 08:53:31;;;;;;;11.35;3.17;;;3.20;99.90;;;;;;4944152;28;20482;-67
2022/02/11 08:56:03;;;;;;;9.32;2.22;;;3.30;99.90;;;;;;4971703;28;20054;-67
2022/02/11 08:58:30;;;;;;;22.15;2.90;;;3.40;99.90;;;;;;4972215;28;20053;-68
2022/02/11 09:00:57;;;;;;;16.75;3.50;;;3.60;99.90;;;;;;4970029;28;20051;-66
2022/02/11 09:03:25;;;;;;;11.55;2.70;;;3.80;99.90;;;;;;4970394;28;20043;-67
2022/02/11 09:05:52;;;;;;;18.92;3.38;;;3.90;99.90;;;;;;4951947;28;20086;-67
2022/02/11 09:08:19;;;;;;;19.48;4.15;;;4.00;99.90;;;;;;4968970;28;20058;-67
2022/02/11 09:10:48;;;;;;;13.82;3.67;;;4.30;99.90;;;;;;4967937;28;20083;-68
2022/02/11 09:13:15;;;;;;;11.15;3.53;;;4.50;99.60;;;;;;4968354;28;20054;-68
2022/02/11 09:15:41;;;;;;;19.65;3.95;;;4.50;98.70;;;;;;4967334;28;20097;-69
2022/02/11 09:18:08;;;;;;;14.35;3.38;;;4.80;99.40;;;;;;4967974;28;20054;-67
2022/02/11 09:20:35;;;;;;;11.80;3.15;;;4.80;99.20;;;;;;4950749;28;20285;-69
2022/02/11 09:23:04;;;;;;;13.45;3.17;;;4.90;98.60;;;;;;4968109;28;20109;-68
2022/02/11 09:25:32;;;;;;;10.15;2.85;;;4.80;99.00;;;;;;4967729;28;20153;-66
2022/02/11 09:27:59;;;;;;;9.27;2.80;;;4.90;99.30;;;;;;4968400;28;20047;-67
2022/02/11 09:30:26;;;;;;;17.10;4.10;;;4.70;99.10;;;;;;4967901;28;20080;-66
2022/02/11 09:32:55;;;;;;;19.02;3.67;;;4.70;99.20;;;;;;4952514;28;20058;-66
2022/02/11 09:35:22;;;;;;;14.10;2.75;;;4.60;99.20;;;;;;4970102;28;20046;-67
2022/02/11 09:37:49;;;;;;;14.10;3.42;;;4.50;99.20;;;;;;4968809;28;20129;-66
2022/02/11 09:40:17;;;;;;;13.63;3.15;;;4.50;99.20;;;;;;4969092;28;20050;-66
2022/02/11 09:42:44;;;;;;;9.02;2.55;;;4.70;99.30;;;;;;4967870;28;20057;-67
2022/02/11 09:45:13;;;;;;;11.02;2.03;;;4.60;99.20;;;;;;4969709;28;20078;-68
2022/02/11 09:47:40;;;;;;;12.93;2.67;;;4.60;99.10;;;;;;4971530;28;20051;-68
2022/02/11 09:50:06;;;;;;;15.77;4.90;;;4.60;99.10;;;;;;4970554;28;20105;-67
2022/02/11 09:52:43;;;;;;;7.07;2.63;;;4.60;99.10;;;;;;4968123;28;20045;-66
2022/02/11 09:57:56;;;;;;;15.73;2.85;;;4.60;99.30;;;;;;4972976;28;20058;-67
2022/02/11 10:00:25;;;;;;;17.02;2.63;;;4.70;99.30;;;;;;4973380;28;20074;-64
2022/02/11 10:02:53;;;;;;;10.90;3.40;;;4.70;98.70;;;;;;4972116;28;20051;-65
2022/02/11 10:05:20;;;;;;;24.10;4.07;;;4.70;98.90;;;;;;4972326;28;20149;-65
2022/02/11 10:07:47;;;;;;;18.17;2.95;;;4.70;98.90;;;;;;4971847;28;20085;-67
2022/02/11 10:10:18;;;;;;;12.55;2.95;;;4.80;99.10;;;;;;4972285;28;20321;-66
2022/02/11 10:12:45;;;;;;;17.83;2.47;;;4.80;98.90;;;;;;4972305;28;20137;-66
2022/02/11 10:15:19;;;;;;;10.93;2.30;;;4.90;98.80;;;;;;4972095;28;20066;-66
2022/02/11 10:17:46;;;;;;;13.60;2.75;;;4.90;98.80;;;;;;4971648;28;20046;-66
2022/02/11 10:20:12;;;;;;;15.65;3.45;;;5.00;98.70;;;;;;4971760;28;20094;-66
2022/02/11 10:22:39;;;;;;;18.27;3.00;;;5.00;98.90;;;;;;4954286;28;20509;-66
2022/02/11 10:25:06;;;;;;;19.10;3.88;;;5.00;98.90;;;;;;4971563;28;20093;-65
2022/02/11 10:27:34;;;;;;;15.65;3.35;;;5.10;98.90;;;;;;4954506;28;20109;-65
2022/02/11 10:30:05;;;;;;;12.57;3.38;;;5.20;98.90;;;;;;4972408;28;20046;-65
2022/02/11 10:32:46;;;;;;;19.38;3.13;;;5.20;98.90;;;;;;4971625;28;20071;-66
2022/02/11 10:35:14;;;;;;;8.13;2.60;;;5.30;97.90;;;;;;4971802;28;20055;-65
2022/02/11 10:38:13;;;;;;;16.02;4.00;;;5.30;98.00;;;;;;4971334;28;20054;-66
2022/02/11 10:40:40;;;;;;;17.70;4.13;;;5.30;98.20;;;;;;4960867;28;20074;-65
2022/02/11 10:43:21;;;;;;;10.23;2.88;;;5.30;98.00;;;;;;4969632;28;20046;-65
2022/02/11 10:45:49;;;;;;;9.70;2.70;;;5.30;98.20;;;;;;4961016;28;20422;-64
2022/02/11 10:48:20;;;;;;;10.98;3.47;;;5.40;98.20;;;;;;4970672;28;20581;-64
2022/02/11 10:50:57;;;;;;;19.00;2.75;;;5.50;98.30;;;;;;4971242;28;20055;-64
2022/02/11 10:53:34;;;;;;;8.60;2.45;;;5.70;98.40;;;;;;4970884;28;20101;-64
2022/02/11 10:56:02;;;;;;;11.32;3.40;;;5.50;98.20;;;;;;4960633;28;20058;-65
2022/02/11 10:58:32;;;;;;;15.95;3.03;;;5.60;98.10;;;;;;4969060;28;20069;-65
2022/02/11 11:01:04;;;;;;;22.52;3.10;;;5.60;98.20;;;;;;4970806;28;20178;-65
2022/02/11 11:03:34;;;;;;;13.40;3.00;;;5.60;98.10;;;;;;4970320;28;20082;-66
2022/02/11 11:06:01;;;;;;;14.32;2.92;;;5.60;98.10;;;;;;4970090;28;20051;-65
2022/02/11 11:08:29;;;;;;;17.50;4.60;;;5.70;98.10;;;;;;4971051;28;20113;-65
2022/02/11 11:10:58;;;;;;;14.40;3.30;;;5.70;98.30;;;;;;4968631;28;20051;-65
2022/02/11 11:13:25;;;;;;;12.75;3.40;;;5.90;98.30;;;;;;4969791;28;20093;-65
2022/02/11 11:15:52;;;;;;;12.75;2.92;;;6.00;98.20;;;;;;4969701;28;20085;-65
2022/02/11 11:18:19;;;;;;;19.58;3.58;;;6.00;98.00;;;;;;4969407;28;20494;-65
2022/02/11 11:20:56;;;;;;;13.70;2.67;;;6.10;98.00;;;;;;4970777;28;20315;-65
2022/02/11 11:23:24;;;;;;;13.88;4.10;;;6.10;97.90;;;;;;4970910;28;20051;-67
2022/02/11 11:25:59;;;;;;;14.27;3.53;;;6.10;97.80;;;;;;4969845;28;20130;-65
2022/02/11 11:28:41;;;;;;;21.60;4.20;;;6.10;97.60;;;;;;4973006;28;20055;-66
2022/02/11 11:31:28;;;;;;;9.23;2.67;;;6.10;97.40;;;;;;4974139;28;20082;-65
2022/02/11 11:34:14;;;;;;;9.73;2.65;;;6.10;97.60;;;;;;4971315;28;20478;-66
2022/02/11 11:36:42;;;;;;;20.73;3.08;;;6.30;97.20;;;;;;4970514;28;20053;-65
2022/02/11 11:39:08;;;;;;;26.73;3.63;;;6.20;97.20;;;;;;4970719;28;20210;-65
2022/02/11 11:41:37;;;;;;;14.20;3.22;;;6.30;97.40;;;;;;4969442;28;20082;-65
2022/02/11 11:44:24;;;;;;;16.13;2.60;;;6.40;97.20;;;;;;4954034;28;20058;-65
2022/02/11 11:46:52;;;;;;;10.15;2.58;;;6.50;96.30;;;;;;4970471;28;20051;-65
2022/02/11 11:49:26;;;;;;;17.40;5.18;;;6.60;96.50;;;;;;4970404;28;20122;-66
2022/02/11 11:51:53;;;;;;;13.90;3.13;;;6.70;96.80;;;;;;4969875;28;20343;-66
2022/02/11 11:54:23;;;;;;;18.17;2.63;;;6.70;95.80;;;;;;4970225;28;20102;-66
2022/02/11 11:56:51;;;;;;;20.60;3.22;;;6.70;95.70;;;;;;4968669;28;20046;-66
2022/02/11 11:59:25;;;;;;;12.18;2.83;;;6.80;96.00;;;;;;4968888;28;20134;-66
2022/02/11 12:01:59;;;;;;;9.02;2.72;;;7.00;96.00;;;;;;4970002;28;20085;-66
2022/02/11 12:04:50;;;;;;;12.25;2.80;;;7.00;96.20;;;;;;4970208;28;20082;-66
2022/02/11 12:07:17;;;;;;;10.60;2.95;;;7.20;96.20;;;;;;4968749;28;20455;-66
2022/02/11 12:09:47;;;;;;;21.17;3.13;;;7.30;94.20;;;;;;4970597;28;20051;-66
2022/02/11 12:12:18;;;;;;;11.95;3.05;;;7.30;95.80;;;;;;4970598;28;20137;-66
2022/02/11 12:14:46;;;;;;;9.98;2.70;;;7.40;95.30;;;;;;4970337;28;20071;-65
2022/02/11 12:17:14;;;;;;;10.43;2.40;;;7.50;94.80;;;;;;4967896;28;20130;-65
2022/02/11 12:19:44;;;;;;;15.63;2.55;;;7.60;94.80;;;;;;4969457;28;20205;-66
2022/02/11 12:22:12;;;;;;;15.25;2.45;;;7.60;95.30;;;;;;4969098;28;20043;-66
2022/02/11 12:27:31;;;;;;;13.23;3.65;;;7.60;93.80;;;;;;4969080;28;20081;-66
2022/02/11 12:30:05;;;;;;;17.02;4.40;;;7.60;94.40;;;;;;4969534;28;20078;-66
2022/02/11 12:32:32;;;;;;;;;;;7.60;93.60;;;;;;4969790;28;20546;-66
2022/02/11 12:35:01;;;;;;;11.38;2.47;;;7.60;91.10;;;;;;4969291;28;19922;-66
2022/02/11 12:37:29;;;;;;;17.65;2.45;;;7.70;92.50;;;;;;4952013;28;20125;-65
2022/02/11 12:40:21;;;;;;;20.50;3.70;;;7.70;93.00;;;;;;4970541;28;20086;-68
2022/02/11 12:42:50;;;;;;;12.15;2.15;;;7.70;91.10;;;;;;4968930;28;20098;-66
2022/02/11 12:45:24;;;;;;;18.50;2.95;;;7.60;91.60;;;;;;4969888;28;20061;-64
2022/02/11 12:47:52;;;;;;;13.82;2.47;;;7.70;92.70;;;;;;4969635;28;20066;-65
2022/02/11 12:50:32;;;;;;;12.82;2.25;;;7.80;93.10;;;;;;4968350;28;20134;-65
2022/02/11 12:53:01;;;;;;;7.90;1.70;;;7.80;92.20;;;;;;4969148;28;20078;-65
2022/02/11 12:55:30;;;;;;;10.20;2.40;;;7.70;93.00;;;;;;4968363;28;20660;-65
2022/02/11 12:57:58;;;;;;;11.68;2.13;;;7.70;92.00;;;;;;4969162;28;20097;-65
2022/02/11 13:00:27;;;;;;;8.70;1.87;;;7.70;92.30;;;;;;4621301;28;10000363;-66
2022/02/11 13:02:58;;;;;;;14.35;2.42;;;7.60;91.40;;;;;;4949224;28;20299;-66
2022/02/11 13:05:26;;;;;;;5.20;2.38;;;7.60;91.50;;;;;;4966254;28;20081;-65
2022/02/11 13:07:54;;;;;;;11.55;2.78;;;7.70;92.10;;;;;;4980713;28;20051;-65
2022/02/11 13:10:23;;;;;;;12.13;2.45;;;7.70;91.90;;;;;;4965794;28;20138;-67
2022/02/11 13:12:56;;;;;;;25.83;2.42;;;7.70;91.70;;;;;;4966319;28;20539;-65
2022/02/11 13:15:28;;;;;;;8.57;2.30;;;7.80;91.90;;;;;;4967038;28;20075;-64
2022/02/11 13:18:16;;;;;;;17.60;5.32;;;7.90;91.60;;;;;;4966704;28;20078;-64
2022/02/11 13:20:49;;;;;;;14.23;2.83;;;8.00;89.10;;;;;;4966649;28;20080;-64
2022/02/11 13:23:24;;;;;;;17.73;3.97;;;7.90;90.20;;;;;;4964688;28;20147;-64
2022/02/11 13:25:52;;;;;;;21.40;3.30;;;7.90;91.40;;;;;;4966429;28;20495;-64
2022/02/11 13:28:20;;;;;;;20.92;2.90;;;7.90;91.70;;;;;;4966648;28;20090;-64
2022/02/11 13:30:55;;;;;;;9.20;2.13;;;8.00;90.30;;;;;;4952933;28;20050;-64
2022/02/11 13:33:22;;;;;;;7.10;1.95;;;8.00;90.50;;;;;;4952466;28;20605;-63
2022/02/11 13:35:57;;;;;;;20.10;2.80;;;8.00;91.50;;;;;;4969962;28;20151;-66
2022/02/11 13:38:25;;;;;;;8.52;1.98;;;8.00;90.10;;;;;;4952953;28;20054;-66
2022/02/11 13:40:57;;;;;;;8.82;2.30;;;8.00;91.00;;;;;;4969172;28;20093;-66
2022/02/11 13:43:24;;;;;;;11.48;2.08;;;8.00;90.10;;;;;;4970254;28;20517;-67
2022/02/11 13:45:56;;;;;;;27.33;3.20;;;8.00;91.10;;;;;;4969575;28;20098;-65
2022/02/11 13:48:27;;;;;;;15.00;1.85;;;8.00;90.20;;;;;;4969216;28;20490;-66
2022/02/11 13:51:12;;;;;;;16.20;4.13;;;8.10;90.70;;;;;;4969094;28;20057;-66
2022/02/11 13:53:52;;;;;;;11.88;2.08;;;8.10;87.00;;;;;;4970829;28;20050;-66
2022/02/11 13:56:23;;;;;;;12.95;2.28;;;8.10;90.40;;;;;;4969801;28;20518;-66
2022/02/11 13:59:03;;;;;;;20.70;2.47;;;8.10;90.30;;;;;;4967761;28;20205;-65
2022/02/11 14:01:31;;;;;;;9.90;2.33;;;8.10;89.40;;;;;;4967832;28;20158;-66
2022/02/11 14:04:02;;;;;;;11.25;2.42;;;8.20;90.80;;;;;;4968186;28;20129;-66
2022/02/11 14:06:35;;;;;;;14.73;3.15;;;8.20;90.80;;;;;;4969338;28;20074;-66
2022/02/11 14:09:06;;;;;;;22.10;2.63;;;8.20;90.60;;;;;;4968954;28;20466;-67
2022/02/11 14:11:35;;;;;;;18.80;2.75;;;8.30;90.80;;;;;;4971361;28;20354;-66
2022/02/11 14:14:13;;;;;;;5.00;1.42;;;8.20;89.20;;;;;;4972795;28;20082;-66
2022/02/11 14:16:40;;;;;;;10.63;1.60;;;8.20;89.80;;;;;;4969503;28;20498;-70
2022/02/11 14:19:08;;;;;;;8.55;2.35;;;8.10;90.50;;;;;;4969248;28;20058;-66
2022/02/11 14:21:35;;;;;;;18.48;3.40;;;8.10;90.80;;;;;;4968553;28;20499;-67
2022/02/11 14:24:01;;;;;;;8.13;2.45;;;8.10;90.80;;;;;;4967519;28;20147;-66
2022/02/11 14:26:30;;;;;;;11.38;1.95;;;8.20;90.40;;;;;;4951409;28;20134;-66
2022/02/11 14:28:56;;;;;;;12.60;2.80;;;8.20;90.30;;;;;;4968617;28;20058;-66
2022/02/11 14:31:23;;;;;;;13.57;2.80;;;8.20;88.50;;;;;;4968221;28;20078;-67
2022/02/11 14:33:50;;;;;;;10.23;1.73;;;8.20;89.60;;;;;;4969141;28;20144;-66
2022/02/11 14:36:17;;;;;;;13.23;2.10;;;8.20;88.30;;;;;;4951560;28;20137;-65
2022/02/11 14:38:44;;;;;;;16.83;2.58;;;8.20;89.70;;;;;;4969265;28;20078;-66
2022/02/11 14:42:00;;;;;;;9.63;1.33;;;8.20;89.70;;;;;;4970150;28;20042;-67
2022/02/11 14:44:00;;;;;;;9.25;2.33;;;8.30;89.90;;;;;;4955574;28;20058;-67
2022/02/11 14:46:26;;;;;;;14.55;2.85;;;8.40;90.20;;;;;;4971583;28;20173;-68
2022/02/11 14:48:54;;;;;;;7.63;2.13;;;8.40;90.20;;;;;;4970291;28;20069;-72
2022/02/11 14:51:21;;;;;;;9.82;2.65;;;8.50;90.30;;;;;;4969132;28;20097;-63
2022/02/11 14:53:48;;;;;;;11.57;2.20;;;8.50;90.40;;;;;;4969952;28;20133;-65
2022/02/11 14:56:15;;;;;;;7.60;2.35;;;8.60;90.00;;;;;;4970515;28;20102;-68
2022/02/11 14:58:43;;;;;;;12.35;2.05;;;8.70;89.90;;;;;;4968571;28;20486;-66
2022/02/11 15:01:10;;;;;;;5.60;1.85;;;8.70;89.30;;;;;;4968595;28;20051;-69
2022/02/11 15:03:38;;;;;;;12.82;2.22;;;8.70;90.20;;;;;;4966818;28;20051;-65
2022/02/11 15:06:06;;;;;;;16.95;2.25;;;8.80;89.60;;;;;;4967570;28;20051;-69
2022/02/11 15:08:33;;;;;;;9.27;2.13;;;8.80;88.70;;;;;;4968489;28;20573;-67
2022/02/11 15:11:01;;;;;;;12.88;2.00;;;8.80;89.70;;;;;;4951625;28;20055;-67
2022/02/11 15:13:28;;;;;;;14.20;2.53;;;8.80;90.10;;;;;;4967545;28;20078;-67
2022/02/11 15:15:54;;;;;;;9.45;2.20;;;8.80;89.70;;;;;;4968876;28;20139;-67
2022/02/11 15:18:21;;;;;;;17.17;3.28;;;8.80;90.00;;;;;;4968678;28;20368;-67
2022/02/11 15:20:48;;;;;;;10.95;2.13;;;8.80;90.20;;;;;;4955270;28;20421;-67
2022/02/11 15:23:15;;;;;;;15.98;3.42;;;8.70;90.00;;;;;;4969894;28;20475;-66
2022/02/11 15:25:42;;;;;;;9.50;2.00;;;8.70;90.00;;;;;;4970210;28;20581;-67
2022/02/11 15:28:08;;;;;;;17.83;2.47;;;8.60;90.20;;;;;;4968943;28;20039;-66
2022/02/11 15:30:35;;;;;;;10.02;2.38;;;8.60;90.00;;;;;;4968048;28;20078;-67
2022/02/11 15:33:02;;;;;;;11.73;2.53;;;8.50;90.10;;;;;;4968896;28;20078;-65
2022/02/11 15:35:29;;;;;;;10.02;2.58;;;8.50;90.10;;;;;;4969064;28;20046;-67
2022/02/11 15:37:56;;;;;;;6.82;2.33;;;8.40;90.50;;;;;;4970533;28;20137;-67
2022/02/11 15:40:27;;;;;;;11.93;3.08;;;8.40;90.30;;;;;;4971359;28;20054;-65
2022/02/11 15:42:55;;;;;;;16.15;4.25;;;8.40;90.30;;;;;;4969272;28;20051;-66
2022/02/11 15:45:24;;;;;;;18.90;3.53;;;8.30;90.30;;;;;;4970981;28;20043;-68
2022/02/11 15:47:51;;;;;;;17.55;4.38;;;8.30;90.30;;;;;;4969371;28;20098;-66
2022/02/11 15:50:18;;;;;;;9.90;2.75;;;8.30;90.50;;;;;;4968960;28;20085;-66
2022/02/11 15:52:45;;;;;;;8.27;2.53;;;8.30;90.60;;;;;;4969661;28;20074;-67
2022/02/11 15:55:12;;;;;;;8.98;2.05;;;8.30;90.60;;;;;;4969315;28;20138;-69
2022/02/11 15:57:39;;;;;;;12.75;2.88;;;8.20;90.50;;;;;;4972198;28;20100;-68
2022/02/11 16:00:07;;;;;;;11.05;2.55;;;8.30;90.70;;;;;;4945048;28;20046;-66
2022/02/11 16:02:34;;;;;;;6.85;1.90;;;8.20;90.70;;;;;;4968949;28;20066;-66
2022/02/11 16:05:01;;;;;;;8.10;2.30;;;8.30;90.60;;;;;;4968423;28;20055;-68
2022/02/11 16:07:27;;;;;;;10.88;2.33;;;8.30;90.60;;;;;;4969512;28;20077;-68
2022/02/11 16:10:05;;;;;;;6.68;2.08;;;8.30;90.40;;;;;;4968745;28;20050;-67
2022/02/11 16:12:36;;;;;;;8.93;1.80;;;8.30;89.80;;;;;;4967675;28;20418;-68
2022/02/11 16:15:12;;;;;;;12.43;2.38;;;8.30;90.60;;;;;;4956460;28;20047;-65
2022/02/11 16:18:16;;;;;;;;;;;;;;;;;;;;;
2022/02/11 16:20:48;;;;;;;10.40;2.97;;;8.20;90.50;;;;;;4966891;28;20082;-65
2022/02/11 16:23:23;;;;;;;19.98;3.63;;;8.10;90.40;;;;;;4599916;28;10000378;-67
2022/02/11 16:25:52;;;;;;;13.93;3.80;;;8.20;90.40;;;;;;4967778;28;20043;-68
2022/02/11 16:28:28;;;;;;;22.63;7.13;;;8.10;90.60;;;;;;4976090;28;20054;-65
2022/02/11 16:31:07;;;;;;;23.42;9.75;;;8.10;90.50;;;;;;4974149;28;20129;-68
2022/02/11 16:33:38;;;;;;;32.88;12.82;;;8.10;90.60;;;;;;4966490;28;20058;-66
2022/02/11 16:36:07;;;;;;;29.10;11.73;;;8.00;90.70;;;;;;4966432;28;20081;-68
2022/02/11 16:38:41;;;;;;;18.67;8.30;;;8.00;90.80;;;;;;4966929;28;20058;-66
2022/02/11 16:41:11;;;;;;;25.65;8.05;;;8.00;90.60;;;;;;4939771;28;20137;-67
2022/02/11 16:43:40;;;;;;;12.65;4.93;;;7.90;90.60;;;;;;4966331;28;20054;-67
2022/02/11 16:46:17;;;;;;;6.72;3.05;;;7.90;90.60;;;;;;4967515;28;20113;-66
2022/02/11 16:48:49;;;;;;;16.20;5.00;;;7.90;90.80;;;;;;4968406;28;20086;-71
2022/02/11 16:51:25;;;;;;;11.20;3.00;;;7.80;91.00;;;;;;4952643;28;20042;-64
2022/02/11 16:53:53;;;;;;;10.60;3.22;;;7.80;91.00;;;;;;4969156;28;20117;-66